This is the latest recevied weather packets stored in our database for station/object W4CAT-WX. If no packets are shown the sender has not sent any weather packets the latest 10 day(s).
| Time | Temp. | Humidity | Pressure | Rain* | Wind** | Luminosity | Snow |
|---|---|---|---|---|---|---|---|
| 1777438534 | 17.22° C | 99% | 976.6 hPa | 0.76 mm | - | - | - |
| 1777437634 | 17.22° C | 99% | 976.6 hPa | 0.51 mm | - | - | - |
| 1777436735 | 17.22° C | 99% | 977.3 hPa | 0.25 mm | - | - | - |
| 1777435835 | 17.22° C | 99% | 978 hPa | 0 mm | - | - | - |
| 1777434934 | 16.67° C | 99% | 978.3 hPa | 0 mm | - | - | - |
| 1777434034 | 16.67° C | 98% | 978.3 hPa | 0 mm | - | - | - |
| 1777433104 | 16.67° C | 98% | 977.6 hPa | 0.25 mm | - | - | - |
| 1777432174 | 16.67° C | 98% | 977.6 hPa | 0.51 mm | - | - | - |
| 1777431245 | 16.67° C | 98% | 977.6 hPa | 1.02 mm | - | - | - |
| 1777430344 | 16.67° C | 98% | 977.6 hPa | 2.54 mm | - | - | - |
| 1777429415 | 16.67° C | 97% | 977.6 hPa | 4.83 mm | - | - | - |
| 1777428484 | 16.67° C | 96% | 977.6 hPa | 6.6 mm | - | - | - |
| 1777427584 | 17.78° C | 97% | 978.3 hPa | 7.11 mm | - | - | - |
| 1777426654 | 18.33° C | 97% | 979.7 hPa | 7.37 mm | - | - | - |
| 1777425724 | 18.89° C | 97% | 980 hPa | 5.84 mm | - | - | - |
| 1777424824 | 19.44° C | 97% | 979 hPa | 5.59 mm | - | - | - |
| 1777423924 | 19.44° C | 97% | 978.7 hPa | 5.33 mm | - | - | - |
| 1777423024 | 19.44° C | 96% | 979.3 hPa | 3.81 mm | - | - | - |
| 1777422124 | 19.44° C | 96% | 978.3 hPa | 6.6 mm | - | - | - |
| 1777421224 | 20° C | 96% | 977.6 hPa | 4.83 mm | - | - | - |
| 1777420294 | 19.44° C | 95% | 978 hPa | 4.06 mm | - | - | - |
| 1777419364 | 19.44° C | 83% | 977.6 hPa | 3.81 mm | - | - | - |
| 1777418434 | 22.22° C | 83% | 977 hPa | 0 mm | - | - | - |
| 1777417534 | 22.78° C | 81% | 977.6 hPa | 0 mm | - | - | - |
| 1777416604 | 22.78° C | 82% | 977 hPa | 0 mm | - | - | - |
* Rain latest hour (hover to see other rain measurements)
** Current wind speed in m/s (hover to see current wind gust speed)